createdAt,value
2018-09-22T00:02:11.431Z,10.17
2018-09-22T00:04:40.433Z,9.80
2018-09-22T00:07:09.785Z,9.97
2018-09-22T00:09:38.643Z,8.77
2018-09-22T00:12:07.532Z,9.60
2018-09-22T00:14:36.557Z,9.93
2018-09-22T00:17:05.627Z,8.73
2018-09-22T00:19:34.777Z,9.13
2018-09-22T00:22:03.964Z,8.60
2018-09-22T00:24:32.756Z,8.67
2018-09-22T00:27:01.778Z,9.00
2018-09-22T00:29:30.988Z,8.80
2018-09-22T00:31:59.852Z,8.97
2018-09-22T00:34:28.899Z,9.10
2018-09-22T00:36:58.244Z,9.10
2018-09-22T00:39:27.197Z,9.27
2018-09-22T00:41:56.994Z,9.63
2018-09-22T00:44:26.052Z,9.43
2018-09-22T00:46:55.093Z,9.20
2018-09-22T00:49:24.076Z,9.47
2018-09-22T00:53:22.766Z,10.00
2018-09-22T00:55:51.702Z,9.00
2018-09-22T00:58:20.789Z,9.27
2018-09-22T01:00:49.835Z,8.90
2018-09-22T01:03:18.616Z,8.70
2018-09-22T01:05:47.861Z,8.53
2018-09-22T01:08:17.521Z,8.80
2018-09-22T01:10:46.709Z,8.83
2018-09-22T01:13:15.699Z,8.63
2018-09-22T01:15:44.687Z,8.30
2018-09-22T01:18:13.690Z,7.63
2018-09-22T01:20:42.597Z,8.40
2018-09-22T01:23:11.856Z,7.77
2018-09-22T01:25:40.795Z,8.37
2018-09-22T01:28:09.586Z,8.43
2018-09-22T01:30:38.919Z,8.57
2018-09-22T01:33:07.948Z,8.33
2018-09-22T01:35:36.979Z,8.67
2018-09-22T01:38:06.071Z,7.80
2018-09-22T01:40:35.159Z,9.47
2018-09-22T01:43:04.012Z,9.10
2018-09-22T01:45:33.034Z,8.57
2018-09-22T01:48:01.974Z,8.90
2018-09-22T01:50:30.881Z,8.57
2018-09-22T01:52:59.758Z,8.27
2018-09-22T01:55:28.711Z,8.30
2018-09-22T01:57:57.671Z,8.07
2018-09-22T02:00:27.522Z,7.97
2018-09-22T02:02:56.562Z,8.37
2018-09-22T02:05:25.363Z,7.43
2018-09-22T02:07:54.749Z,7.40
2018-09-22T02:10:23.658Z,7.37
2018-09-22T02:12:52.629Z,7.07
2018-09-22T02:15:21.669Z,7.53
2018-09-22T02:17:50.532Z,7.67
2018-09-22T02:20:19.638Z,7.53
2018-09-22T02:22:49.073Z,8.10
2018-09-22T02:25:17.902Z,7.93
2018-09-22T02:27:46.858Z,7.63
2018-09-22T02:30:15.873Z,8.77
2018-09-22T02:32:44.920Z,8.30
2018-09-22T02:35:13.891Z,8.27
2018-09-22T02:37:43.171Z,8.23
2018-09-22T02:40:11.974Z,8.17
2018-09-22T02:42:41.054Z,8.67
2018-09-22T02:45:10.479Z,8.20
2018-09-22T02:47:39.423Z,8.33
2018-09-22T02:50:08.326Z,8.07
2018-09-22T02:52:37.523Z,9.40
2018-09-22T02:55:06.551Z,8.60
2018-09-22T02:57:35.646Z,9.20
2018-09-22T03:00:05.017Z,8.90
2018-09-22T03:02:33.889Z,8.37
2018-09-22T03:05:02.928Z,7.83
2018-09-22T03:07:31.995Z,8.07
2018-09-22T03:10:00.997Z,8.13
2018-09-22T03:12:30.018Z,8.80
2018-09-22T03:14:59.179Z,8.07
2018-09-22T03:17:28.064Z,8.17
2018-09-22T03:19:56.928Z,8.20
2018-09-22T03:22:25.983Z,8.57
2018-09-22T03:24:55.014Z,7.70
2018-09-22T03:27:26.297Z,8.40
2018-09-22T03:29:55.247Z,7.43
2018-09-22T03:32:24.343Z,6.77
2018-09-22T03:34:53.725Z,7.90
2018-09-22T03:37:22.660Z,6.87
2018-09-22T03:39:51.772Z,7.97
2018-09-22T03:42:20.645Z,7.53
2018-09-22T03:44:49.659Z,6.83
2018-09-22T03:47:18.713Z,6.53
2018-09-22T03:49:48.333Z,6.47
2018-09-22T03:52:17.305Z,6.53
2018-09-22T03:54:46.386Z,6.23
2018-09-22T03:57:15.452Z,6.80
2018-09-22T03:59:44.437Z,6.97
2018-09-22T04:02:13.351Z,16.43
2018-09-22T04:04:42.814Z,12.00
2018-09-22T04:07:11.839Z,7.87
2018-09-22T04:09:41.792Z,10.10
2018-09-22T04:12:10.854Z,7.20
2018-09-22T04:14:39.833Z,6.87
2018-09-22T04:17:09.050Z,7.07
2018-09-22T04:19:38.630Z,7.10
2018-09-22T04:22:07.790Z,7.20
2018-09-22T04:24:36.739Z,7.63
2018-09-22T04:27:05.931Z,40.80
2018-09-22T04:29:34.962Z,14.93
2018-09-22T04:32:04.049Z,11.00
2018-09-22T04:34:33.097Z,9.73
2018-09-22T04:37:02.195Z,9.63
2018-09-22T04:39:31.059Z,7.70
2018-09-22T04:42:00.505Z,8.20
2018-09-22T04:44:29.391Z,7.50
2018-09-22T04:46:58.232Z,7.10
2018-09-22T04:49:27.765Z,7.50
2018-09-22T04:51:56.661Z,7.27
2018-09-22T04:54:25.595Z,7.50
2018-09-22T04:56:54.814Z,6.33
2018-09-22T04:59:23.890Z,7.23
2018-09-22T05:08:37.367Z,6.50
2018-09-22T05:11:06.513Z,5.80
2018-09-22T05:15:05.695Z,6.50
2018-09-22T05:17:34.741Z,6.73
2018-09-22T05:20:03.707Z,6.80
2018-09-22T05:22:33.099Z,7.37
2018-09-22T05:25:02.017Z,7.43
2018-09-22T05:27:31.349Z,6.90
2018-09-22T05:30:00.530Z,7.00
2018-09-22T05:32:29.524Z,7.10
2018-09-22T05:34:58.994Z,7.20
2018-09-22T05:37:28.142Z,6.50
2018-09-22T05:39:57.195Z,7.30
2018-09-22T05:42:27.130Z,6.77
2018-09-22T05:44:56.844Z,6.93
2018-09-22T05:47:25.833Z,6.73
2018-09-22T05:49:54.761Z,7.00
2018-09-22T05:52:23.627Z,6.70
2018-09-22T05:54:52.577Z,7.33
2018-09-22T05:57:21.679Z,7.10
2018-09-22T05:59:50.684Z,7.67
2018-09-22T06:02:19.937Z,7.47
2018-09-22T06:04:49.317Z,6.70
2018-09-22T06:07:18.281Z,8.07
2018-09-22T06:09:47.453Z,7.77
2018-09-22T06:12:16.865Z,8.33
2018-09-22T06:14:45.923Z,8.00
2018-09-22T06:17:16.411Z,6.83
2018-09-22T06:19:45.729Z,6.47
2018-09-22T06:22:16.052Z,7.03
2018-09-22T06:24:45.495Z,7.20
2018-09-22T06:27:14.459Z,8.37
2018-09-22T06:29:43.662Z,6.30
2018-09-22T06:32:13.221Z,6.17
2018-09-22T06:34:42.411Z,6.60
2018-09-22T06:37:11.545Z,6.70
2018-09-22T06:39:40.402Z,6.47
2018-09-22T06:43:38.808Z,6.43
2018-09-22T06:46:08.418Z,6.40
2018-09-22T06:48:37.575Z,5.40
2018-09-22T06:51:06.919Z,6.20
2018-09-22T06:53:35.857Z,6.63
2018-09-22T06:56:04.773Z,5.77
2018-09-22T06:58:33.687Z,5.40
2018-09-22T07:01:03.134Z,4.73
2018-09-22T07:03:32.018Z,5.13
2018-09-22T07:06:00.977Z,5.30
2018-09-22T07:08:29.894Z,4.97
2018-09-22T07:10:58.984Z,5.60
2018-09-22T07:13:27.984Z,4.57
2018-09-22T07:15:57.091Z,4.80
2018-09-22T07:18:26.113Z,5.00
2018-09-22T07:21:00.372Z,5.67
2018-09-22T07:23:29.274Z,7.63
2018-09-22T07:25:58.313Z,5.37
2018-09-22T07:28:27.701Z,4.50
2018-09-22T07:30:57.699Z,5.07
2018-09-22T07:34:55.995Z,5.90
2018-09-22T07:37:24.991Z,5.03
2018-09-22T07:39:55.415Z,5.83
2018-09-22T07:42:24.562Z,5.13
2018-09-22T07:44:53.556Z,4.87
2018-09-22T07:47:22.503Z,5.00
2018-09-22T07:49:51.931Z,4.83
2018-09-22T07:52:20.847Z,6.10
2018-09-22T07:54:49.755Z,6.90
2018-09-22T07:57:18.881Z,5.50
2018-09-22T07:59:47.906Z,5.50
2018-09-22T08:02:17.153Z,4.13
2018-09-22T08:04:46.493Z,6.00
2018-09-22T08:07:15.340Z,6.67
2018-09-22T08:09:44.306Z,5.50
2018-09-22T08:12:13.367Z,5.13
2018-09-22T08:14:42.408Z,4.87
2018-09-22T08:17:11.501Z,4.63
2018-09-22T08:19:40.866Z,5.83
2018-09-22T08:22:09.723Z,4.87
2018-09-22T08:24:38.701Z,5.10
2018-09-22T08:27:07.778Z,4.63
2018-09-22T08:29:36.764Z,4.63
2018-09-22T08:32:05.896Z,8.17
2018-09-22T08:34:35.337Z,5.20
2018-09-22T08:37:04.500Z,5.13
2018-09-22T08:39:33.450Z,4.97
2018-09-22T08:42:04.355Z,5.57
2018-09-22T08:44:33.453Z,4.87
2018-09-22T08:47:02.464Z,4.90
2018-09-22T08:49:31.835Z,5.67
2018-09-22T08:52:00.837Z,5.03
2018-09-22T08:54:29.772Z,4.47
2018-09-22T08:57:00.147Z,5.22
2018-09-22T08:59:29.080Z,4.37
2018-09-22T09:01:58.138Z,5.23
2018-09-22T09:04:27.849Z,5.20
2018-09-22T09:06:56.962Z,5.12
2018-09-22T09:09:26.094Z,5.25
2018-09-22T09:11:55.084Z,4.60
2018-09-22T09:14:23.930Z,4.87
2018-09-22T09:16:53.313Z,5.42
2018-09-22T09:19:22.398Z,5.08
2018-09-22T09:21:51.233Z,4.00
2018-09-22T09:24:20.204Z,4.95
2018-09-22T09:26:50.631Z,4.70
2018-09-22T09:29:19.551Z,4.28
2018-09-22T09:31:48.390Z,4.65
2018-09-22T09:34:17.326Z,4.37
2018-09-22T09:36:46.246Z,4.45
2018-09-22T09:39:15.075Z,4.53
2018-09-22T09:41:44.312Z,4.35
2018-09-22T09:44:13.265Z,4.60
2018-09-22T09:46:42.218Z,4.70
2018-09-22T09:49:11.679Z,4.90
2018-09-22T09:51:40.596Z,4.75
2018-09-22T09:54:09.368Z,4.97
2018-09-22T09:56:38.430Z,3.85
2018-09-22T09:59:07.414Z,3.98
2018-09-22T10:01:36.303Z,3.52
2018-09-22T10:04:05.594Z,3.80
2018-09-22T10:06:34.652Z,4.28
2018-09-22T10:09:04.088Z,4.47
2018-09-22T10:11:33.560Z,4.47
2018-09-22T10:14:02.695Z,4.30
2018-09-22T10:16:31.706Z,5.03
2018-09-22T10:19:01.788Z,4.75
2018-09-22T10:21:30.703Z,4.80
2018-09-22T10:23:59.662Z,4.05
2018-09-22T10:26:29.071Z,4.55
2018-09-22T10:28:58.111Z,3.95
2018-09-22T10:31:27.192Z,3.75
2018-09-22T10:33:56.632Z,4.05
2018-09-22T10:36:25.696Z,4.20
2018-09-22T10:38:54.630Z,4.10
2018-09-22T10:41:23.707Z,3.87
2018-09-22T10:43:52.814Z,3.90
2018-09-22T10:46:21.841Z,3.98
2018-09-22T10:48:51.777Z,3.33
2018-09-22T10:51:20.928Z,4.53
2018-09-22T10:53:49.897Z,3.95
2018-09-22T10:56:18.857Z,4.10
2018-09-22T10:58:47.901Z,4.40
2018-09-22T11:01:16.909Z,4.65
2018-09-22T11:03:46.469Z,3.95
2018-09-22T11:06:15.780Z,4.47
2018-09-22T11:08:44.677Z,3.87
2018-09-22T11:11:13.598Z,3.92
2018-09-22T11:13:42.381Z,4.90
2018-09-22T11:16:11.541Z,4.72
2018-09-22T11:18:40.886Z,4.53
2018-09-22T11:21:09.875Z,3.98
2018-09-22T11:23:42.741Z,3.90
2018-09-22T11:26:11.888Z,4.15
2018-09-22T11:28:40.936Z,3.85
2018-09-22T11:31:10.003Z,4.20
2018-09-22T11:33:38.849Z,3.70
2018-09-22T11:36:07.829Z,3.70
2018-09-22T11:38:37.487Z,3.75
2018-09-22T11:41:06.477Z,3.95
2018-09-22T11:43:35.342Z,3.80
2018-09-22T11:46:04.896Z,4.28
2018-09-22T11:48:33.810Z,3.75
2018-09-22T11:51:02.702Z,3.67
2018-09-22T11:53:32.023Z,3.52
2018-09-22T11:56:00.983Z,3.15
2018-09-22T11:58:30.144Z,3.47
2018-09-22T12:00:59.706Z,3.05
2018-09-22T12:03:28.519Z,3.05
2018-09-22T12:05:57.549Z,3.83
2018-09-22T12:08:26.569Z,3.45
2018-09-22T12:10:55.502Z,2.77
2018-09-22T12:13:24.597Z,3.22
2018-09-22T12:15:53.843Z,3.45
2018-09-22T12:18:23.061Z,3.35
2018-09-22T12:20:51.958Z,2.90
2018-09-22T12:23:21.092Z,3.67
2018-09-22T12:25:50.162Z,3.20
2018-09-22T12:28:19.073Z,2.90
2018-09-22T12:30:48.063Z,3.17
2018-09-22T12:33:17.168Z,3.37
2018-09-22T12:35:46.322Z,3.60
2018-09-22T12:38:15.529Z,3.35
2018-09-22T12:40:44.453Z,3.70
2018-09-22T12:43:13.540Z,3.27
2018-09-22T12:45:42.670Z,2.60
2018-09-22T12:48:11.596Z,3.17
2018-09-22T12:50:40.620Z,2.85
2018-09-22T12:53:10.001Z,2.70
2018-09-22T12:55:39.114Z,3.00
2018-09-22T12:58:08.082Z,4.20
2018-09-22T13:00:37.203Z,3.27
2018-09-22T13:03:06.319Z,3.10
2018-09-22T13:05:35.501Z,3.60
2018-09-22T13:08:04.567Z,3.62
2018-09-22T13:10:33.727Z,4.00
2018-09-22T13:13:02.631Z,3.70
2018-09-22T13:15:31.806Z,3.67
2018-09-22T13:18:00.928Z,4.00
2018-09-22T13:20:29.902Z,4.20
2018-09-22T13:22:59.366Z,4.87
2018-09-22T13:25:28.386Z,5.28
2018-09-22T13:27:57.467Z,5.95
2018-09-22T13:30:26.506Z,5.03
2018-09-22T13:32:55.551Z,5.30
2018-09-22T13:35:24.520Z,5.37
2018-09-22T13:37:53.767Z,5.80
2018-09-22T13:40:22.883Z,5.40
2018-09-22T13:42:51.911Z,4.90
2018-09-22T13:45:20.885Z,5.47
2018-09-22T13:47:49.884Z,6.10
2018-09-22T13:50:18.904Z,4.90
2018-09-22T13:52:48.296Z,4.95
2018-09-22T13:55:17.211Z,5.05
2018-09-22T13:57:46.053Z,4.92
2018-09-22T14:00:15.209Z,5.67
2018-09-22T14:02:44.471Z,12.70
2018-09-22T14:05:13.378Z,5.62
2018-09-22T14:07:42.908Z,5.50
2018-09-22T14:10:12.085Z,6.25
2018-09-22T14:12:42.242Z,7.40
2018-09-22T14:15:11.282Z,7.85
2018-09-22T14:17:40.491Z,7.20
2018-09-22T14:20:09.612Z,6.90
2018-09-22T14:22:38.671Z,6.97
2018-09-22T14:25:07.758Z,7.00
2018-09-22T14:27:36.863Z,6.37
2018-09-22T14:30:06.012Z,6.65
2018-09-22T14:32:35.161Z,6.45
2018-09-22T14:35:04.189Z,6.10
2018-09-22T14:37:33.239Z,6.30
2018-09-22T14:40:02.149Z,6.08
2018-09-22T14:42:31.373Z,5.10
2018-09-22T14:45:00.224Z,5.25
2018-09-22T14:47:29.273Z,5.15
2018-09-22T14:49:58.334Z,5.47
2018-09-22T14:52:27.311Z,5.00
2018-09-22T14:54:56.253Z,4.87
2018-09-22T14:57:25.577Z,4.87
2018-09-22T14:59:54.789Z,4.53
2018-09-22T15:02:23.814Z,4.55
2018-09-22T15:04:52.865Z,5.25
2018-09-22T15:07:21.886Z,4.67
2018-09-22T15:09:50.890Z,4.53
2018-09-22T15:12:20.265Z,4.58
2018-09-22T15:14:49.251Z,4.00
2018-09-22T15:17:18.471Z,4.50
2018-09-22T15:19:47.363Z,3.83
2018-09-22T15:22:16.222Z,4.50
2018-09-22T15:24:45.132Z,4.22
2018-09-22T15:27:14.392Z,4.20
2018-09-22T15:29:43.376Z,4.42
2018-09-22T15:32:12.563Z,4.37
2018-09-22T15:34:41.594Z,4.42
2018-09-22T15:37:10.584Z,4.58
2018-09-22T15:39:39.490Z,4.58
2018-09-22T15:42:08.868Z,5.47
2018-09-22T15:44:37.913Z,4.62
2018-09-22T15:47:07.286Z,4.55
2018-09-22T15:49:36.863Z,4.87
2018-09-22T15:52:05.944Z,4.78
2018-09-22T15:54:34.784Z,4.37
2018-09-22T15:57:04.003Z,4.30
2018-09-22T15:59:33.475Z,4.40
2018-09-22T16:02:02.346Z,4.62
2018-09-22T16:04:31.666Z,4.05
2018-09-22T16:07:00.763Z,4.42
